Time;durP1;ratioP1;P1;durP2;ratioP2;P2;SDS_P1;SDS_P2;PMS_P1;PMS_P2;Temp;Humidity;BMP_temperature;BMP_pressure;BME280_temperature;BME280_humidity;BME280_pressure;Samples;Min_cycle;Max_cycle;Signal;HPM_P1;HPM_P2
2022/08/05 00:02:08;;;;;;;3.30;2.50;;;;;;;25.88;35.96;101012.34;5062139;28;20798;-64
2022/08/05 00:04:34;;;;;;;3.47;2.70;;;;;;;25.86;35.89;101019.13;5064080;28;20781;-61
2022/08/05 00:09:21;;;;;;;3.40;2.40;;;;;;;25.81;36.06;101011.75;5093139;27;20927;-63
2022/08/05 00:11:48;;;;;;;2.90;2.60;;;;;;;25.79;35.80;101011.22;5085351;28;20463;-61
2022/08/05 00:14:14;;;;;;;5.05;2.60;;;;;;;25.75;35.89;101010.94;5084638;28;20896;-61
2022/08/05 00:16:39;;;;;;;3.55;2.40;;;;;;;25.74;36.06;101006.56;5084591;28;20405;-61
2022/08/05 00:19:05;;;;;;;2.83;2.57;;;;;;;25.72;35.98;101008.72;5084934;28;20398;-61
2022/08/05 00:21:30;;;;;;;3.93;2.40;;;;;;;25.72;36.19;101003.31;5083772;28;20408;-61
2022/08/05 00:23:56;;;;;;;3.67;2.42;;;;;;;25.71;36.13;101011.72;5083103;28;20784;-62
2022/08/05 00:26:21;;;;;;;3.50;2.67;;;;;;;25.68;36.25;101006.81;5084676;28;20428;-61
2022/08/05 00:28:47;;;;;;;5.50;2.60;;;;;;;25.68;36.16;101023.13;5085761;28;20441;-63
2022/08/05 00:31:13;;;;;;;5.40;2.90;;;;;;;25.62;36.23;101013.28;5082253;28;20409;-61
2022/08/05 00:33:38;;;;;;;5.80;2.70;;;;;;;25.60;36.43;101015.47;5085053;28;20437;-62
2022/08/05 00:36:04;;;;;;;4.33;2.83;;;;;;;25.59;36.58;101009.22;5085052;28;20389;-61
2022/08/05 00:38:30;;;;;;;4.43;2.80;;;;;;;25.62;36.49;101008.69;5084047;28;20394;-60
2022/08/05 00:40:57;;;;;;;4.00;2.70;;;;;;;25.60;36.66;101008.13;5084458;28;20409;-61
2022/08/05 00:45:06;;;;;;;4.88;2.58;;;;;;;25.53;36.57;101007.53;5046545;28;20410;-60
2022/08/05 00:48:52;;;;;;;3.20;2.53;;;;;;;25.55;36.73;101006.22;5071183;27;20462;-61
2022/08/05 00:51:21;;;;;;;3.03;2.50;;;;;;;25.51;36.57;100993.41;5045329;28;20425;-61
2022/08/05 00:53:47;;;;;;;3.00;2.70;;;;;;;25.44;36.75;101000.97;5044480;28;20405;-62
2022/08/05 00:56:17;;;;;;;6.20;2.85;;;;;;;25.45;36.79;101005.34;5062232;28;20387;-61
2022/08/05 00:58:43;;;;;;;3.20;2.90;;;;;;;25.47;36.89;101012.13;5042006;28;20447;-62
2022/08/05 01:01:09;;;;;;;5.33;2.63;;;;;;;25.36;37.04;101019.38;5044079;28;20405;-62
2022/08/05 01:03:36;;;;;;;3.40;2.60;;;;;;;25.17;37.32;101008.13;5046647;28;20425;-62
2022/08/05 01:06:02;;;;;;;4.35;2.60;;;;;;;25.23;37.41;101011.69;5047211;28;20533;-61
2022/08/05 01:10:26;;;;;;;4.13;3.00;;;;;;;25.25;37.40;101006.03;5086396;27;20413;-62
2022/08/05 01:12:56;;;;;;;4.32;2.90;;;;;;;25.24;37.48;101007.06;5085732;28;20408;-61
2022/08/05 01:15:29;;;;;;;5.15;2.72;;;;;;;25.23;37.60;101006.25;5084630;28;20424;-64
2022/08/05 01:18:02;;;;;;;4.28;2.60;;;;;;;25.22;37.63;101001.09;5085577;28;20413;-62
2022/08/05 01:20:44;;;;;;;3.83;2.85;;;;;;;25.23;37.67;101002.72;5081625;28;20398;-63
2022/08/05 01:23:28;;;;;;;4.57;2.70;;;;;;;25.21;37.75;101003.00;5078709;28;20401;-62
2022/08/05 01:26:18;;;;;;;3.92;2.80;;;;;;;25.18;37.54;101011.66;5085066;28;20975;-62
2022/08/05 01:28:56;;;;;;;3.00;2.80;;;;;;;25.12;37.85;101002.66;5082657;28;20424;-63
2022/08/05 01:31:43;;;;;;;3.42;2.78;;;;;;;25.10;37.87;101012.97;5084548;28;20412;-63
2022/08/05 01:34:31;;;;;;;3.20;2.75;;;;;;;25.08;37.81;101012.38;5084788;28;20401;-61
2022/08/05 01:37:04;;;;;;;3.47;2.83;;;;;;;25.05;37.94;101002.06;5077534;28;20496;-62
2022/08/05 01:39:31;;;;;;;2.97;2.65;;;;;;;25.04;37.95;101000.41;5084078;28;20940;-62
2022/08/05 01:41:58;;;;;;;3.67;2.83;;;;;;;25.03;37.96;100997.97;5084659;28;20479;-62
2022/08/05 01:44:24;;;;;;;4.32;2.97;;;;;;;24.99;37.93;101000.38;5084249;28;20398;-61
2022/08/05 01:46:52;;;;;;;3.40;2.77;;;;;;;24.93;38.18;100999.53;5084016;28;20390;-64
2022/08/05 01:49:21;;;;;;;3.20;2.88;;;;;;;24.94;38.05;101001.16;5083076;28;20501;-61
2022/08/05 01:51:49;;;;;;;4.85;2.60;;;;;;;24.93;37.97;101006.84;5084430;28;20446;-63
2022/08/05 01:54:18;;;;;;;4.05;3.08;;;;;;;24.89;38.36;101008.44;5084334;28;20409;-62
2022/08/05 01:56:45;;;;;;;3.17;2.88;;;;;;;24.86;38.32;101006.25;5084056;28;20402;-61
2022/08/05 01:59:16;;;;;;;4.15;2.92;;;;;;;24.86;38.39;101007.06;5084972;28;20803;-65
2022/08/05 02:01:42;;;;;;;4.00;3.05;;;;;;;24.86;38.52;100996.19;5083927;28;20397;-62
2022/08/05 02:04:09;;;;;;;5.00;2.88;;;;;;;24.87;38.55;100997.84;5085352;28;20485;-61
2022/08/05 02:11:43;;;;;;;4.93;2.80;;;;;;;24.78;38.86;100997.50;5045966;28;20784;-61
2022/08/05 02:14:16;;;;;;;6.20;2.80;;;;;;;24.76;38.96;100991.53;5042742;28;20422;-63
2022/08/05 02:16:53;;;;;;;3.25;2.90;;;;;;;24.79;38.92;101001.88;5025030;28;20414;-61
2022/08/05 02:19:50;;;;;;;3.95;2.70;;;;;;;24.79;39.01;101004.56;5044912;28;20421;-61
2022/08/05 02:22:27;;;;;;;3.35;3.00;;;;;;;24.78;39.20;101011.06;5042501;28;20413;-61
2022/08/05 02:25:11;;;;;;;3.47;3.17;;;;;;;24.78;39.10;101011.06;5045466;28;20425;-61
2022/08/05 02:28:05;;;;;;;4.38;2.72;;;;;;;24.73;39.23;101002.88;5050177;28;20410;-61
2022/08/05 02:30:37;;;;;;;5.03;2.97;;;;;;;24.70;39.05;101014.22;5043063;28;20497;-62
2022/08/05 02:33:06;;;;;;;4.90;2.83;;;;;;;24.68;39.05;101013.66;5046030;28;20405;-61
2022/08/05 02:35:35;;;;;;;4.53;3.13;;;;;;;24.59;38.93;101012.50;5044984;28;20416;-61
2022/08/05 02:38:01;;;;;;;3.22;2.90;;;;;;;24.57;39.10;101014.66;5043870;28;20488;-61
2022/08/05 02:40:27;;;;;;;4.57;2.97;;;;;;;24.52;39.09;101009.97;5043541;28;20480;-61
2022/08/05 02:42:54;;;;;;;3.50;3.20;;;;;;;24.50;39.17;101008.59;5044102;28;20417;-60
2022/08/05 02:45:22;;;;;;;4.85;2.97;;;;;;;24.46;39.07;101008.28;5044476;28;21460;-61
2022/08/05 02:47:49;;;;;;;3.30;3.00;;;;;;;24.48;38.99;101018.88;5045636;28;20899;-61
2022/08/05 02:50:15;;;;;;;3.15;2.70;;;;;;;24.46;39.01;101013.72;5043892;28;20405;-61
2022/08/05 02:52:45;;;;;;;5.93;3.17;;;;;;;24.44;39.01;101013.16;5044484;28;20951;-61
2022/08/05 02:55:12;;;;;;;4.40;3.05;;;;;;;24.38;38.88;101016.88;5035126;28;20807;-61
2022/08/05 02:57:39;;;;;;;4.47;2.70;;;;;;;24.36;39.14;101019.84;5045077;28;20393;-61
2022/08/05 03:00:06;;;;;;;3.28;2.95;;;;;;;24.30;39.11;101018.16;5044341;28;20425;-60
2022/08/05 03:02:36;;;;;;;3.90;2.80;;;;;;;24.33;39.13;101009.50;5043599;28;20500;-62
2022/08/05 03:05:05;;;;;;;3.10;2.85;;;;;;;24.33;39.30;101020.34;5044493;28;20763;-62
2022/08/05 03:07:32;;;;;;;3.53;2.97;;;;;;;24.29;39.12;101019.22;5044804;28;20418;-60
2022/08/05 03:09:58;;;;;;;4.97;3.60;;;;;;;24.26;39.12;101013.50;5040160;28;20405;-61
2022/08/05 03:12:31;;;;;;;7.13;3.83;;;;;;;24.26;39.32;101030.56;5044822;28;20398;-62
2022/08/05 03:14:56;;;;;;;3.63;2.90;;;;;;;24.30;39.55;101028.97;5043362;28;20418;-61
2022/08/05 03:17:22;;;;;;;3.95;2.83;;;;;;;24.26;39.44;101019.72;5042154;28;20409;-61
2022/08/05 03:19:47;;;;;;;7.55;3.00;;;;;;;24.28;39.23;101020.28;5044949;28;20451;-61
2022/08/05 03:22:13;;;;;;;4.30;3.07;;;;;;;24.33;39.27;101028.47;5045079;28;20401;-62
2022/08/05 03:24:40;;;;;;;6.30;3.30;;;;;;;24.32;39.24;101021.41;5042838;28;20496;-61
2022/08/05 03:27:06;;;;;;;4.73;3.13;;;;;;;24.34;39.22;101026.59;5045394;28;20450;-61
2022/08/05 03:29:32;;;;;;;5.57;3.05;;;;;;;24.32;39.24;101020.59;5043406;28;20401;-60
2022/08/05 03:31:57;;;;;;;7.47;3.15;;;;;;;24.33;39.22;101024.97;5043502;28;20401;-63
2022/08/05 03:34:24;;;;;;;5.28;3.22;;;;;;;24.35;39.23;101023.63;5043633;28;20496;-60
2022/08/05 03:36:49;;;;;;;4.57;3.20;;;;;;;24.39;39.15;101021.22;5043632;28;20808;-61
2022/08/05 03:39:15;;;;;;;5.18;3.13;;;;;;;24.46;39.09;101019.13;5030858;28;20911;-61
2022/08/05 03:41:40;;;;;;;4.65;3.45;;;;;;;24.49;38.97;101026.75;5032059;28;20457;-61
2022/08/05 03:44:06;;;;;;;8.90;6.03;;;;;;;24.57;38.88;101030.91;5030400;28;20767;-61
2022/08/05 03:46:31;;;;;;;16.53;14.90;;;;;;;24.62;38.75;101030.97;5027788;28;20422;-62
2022/08/05 03:48:58;;;;;;;6.60;4.50;;;;;;;24.68;38.79;101034.53;5030369;28;20402;-61
2022/08/05 03:51:31;;;;;;;6.90;4.30;;;;;;;24.77;38.42;101039.25;5029301;28;20849;-61
2022/08/05 03:53:59;;;;;;;9.65;3.47;;;;;;;24.85;38.17;101037.13;5028735;28;20456;-64
2022/08/05 03:56:37;;;;;;;11.30;3.38;;;;;;;24.96;38.08;101036.16;5029931;28;20402;-62
2022/08/05 03:59:09;;;;;;;5.60;3.42;;;;;;;25.07;37.99;101035.16;5029536;28;20426;-62
2022/08/05 04:01:38;;;;;;;5.80;3.40;;;;;;;25.17;37.85;101037.97;5029543;28;20979;-61
2022/08/05 04:04:05;;;;;;;4.82;3.45;;;;;;;25.34;37.72;101047.88;5030627;28;20908;-61
2022/08/05 04:06:33;;;;;;;5.07;3.42;;;;;;;25.50;37.30;101043.38;5029173;28;20476;-61
2022/08/05 04:09:00;;;;;;;9.23;3.85;;;;;;;25.70;37.14;101039.97;5023925;28;20405;-63
2022/08/05 04:11:26;;;;;;;5.18;3.40;;;;;;;25.80;36.98;101044.59;5030363;28;20800;-62
2022/08/05 04:13:53;;;;;;;7.45;3.50;;;;;;;25.93;36.73;101038.75;5030500;28;20398;-60
2022/08/05 04:16:20;;;;;;;9.73;3.65;;;;;;;26.12;36.45;101045.31;5028120;28;20402;-60
2022/08/05 04:18:45;;;;;;;10.05;3.75;;;;;;;26.38;36.11;101044.59;5030078;28;20425;-62
2022/08/05 04:21:11;;;;;;;17.23;4.00;;;;;;;26.58;35.78;101038.38;5030539;28;20390;-60
2022/08/05 04:23:38;;;;;;;7.00;3.92;;;;;;;26.76;35.47;101034.34;5028580;28;20445;-61
2022/08/05 04:26:04;;;;;;;7.88;4.03;;;;;;;26.95;35.04;101029.19;5029660;28;20526;-61
2022/08/05 04:28:30;;;;;;;5.25;4.00;;;;;;;27.06;35.06;101037.09;5029525;28;20843;-60
2022/08/05 04:30:56;;;;;;;8.63;4.22;;;;;;;27.31;34.37;101040.09;5028455;28;20493;-60
2022/08/05 04:33:21;;;;;;;5.67;3.80;;;;;;;27.55;34.04;101043.03;5028923;28;20509;-64
2022/08/05 04:35:47;;;;;;;5.40;3.97;;;;;;;27.79;33.65;101049.50;5028657;28;20405;-61
2022/08/05 04:38:12;;;;;;;5.43;3.70;;;;;;;28.06;33.41;101048.34;5029684;28;20812;-60
2022/08/05 04:40:40;;;;;;;6.40;3.93;;;;;;;28.32;33.08;101043.56;5028488;28;20406;-62
2022/08/05 04:43:06;;;;;;;9.23;3.55;;;;;;;28.52;32.92;101045.38;5029531;28;20394;-61
2022/08/05 04:45:32;;;;;;;5.93;3.80;;;;;;;28.71;32.57;101044.72;5027735;28;20928;-61
2022/08/05 04:48:05;;;;;;;9.70;3.63;;;;;;;28.88;32.26;101044.31;5029939;28;20927;-61
2022/08/05 04:50:31;;;;;;;9.10;3.72;;;;;;;29.05;32.05;101039.25;5026892;28;20402;-61
2022/08/05 04:52:57;;;;;;;8.80;3.15;;;;;;;29.46;31.35;101038.91;5029056;28;20394;-61
2022/08/05 04:55:22;;;;;;;6.27;3.63;;;;;;;29.91;31.04;101044.97;5029754;28;20923;-61
2022/08/05 04:57:47;;;;;;;4.70;3.23;;;;;;;30.40;30.05;101039.44;5029935;28;20500;-60
2022/08/05 05:00:13;;;;;;;5.63;3.03;;;;;;;30.87;29.62;101043.06;5029460;28;20394;-63
2022/08/05 05:02:39;;;;;;;7.10;3.00;;;;;;;31.00;29.02;101036.84;5028914;28;20799;-61
2022/08/05 05:05:05;;;;;;;5.97;4.00;;;;;;;31.10;29.34;101041.34;5029982;28;20896;-62
2022/08/05 05:07:31;;;;;;;5.07;3.78;;;;;;;30.99;29.55;101035.25;5029299;28;20417;-61
2022/08/05 05:09:56;;;;;;;4.93;3.33;;;;;;;31.12;29.33;101033.66;5028964;28;20406;-61
2022/08/05 05:12:23;;;;;;;4.93;3.45;;;;;;;31.22;29.38;101025.25;5030193;28;20395;-62
2022/08/05 05:14:48;;;;;;;4.00;3.38;;;;;;;31.51;28.90;101028.84;5028740;28;20398;-62
2022/08/05 05:17:14;;;;;;;4.13;3.22;;;;;;;31.78;28.38;101025.28;5028970;28;20402;-61
2022/08/05 05:19:40;;;;;;;5.43;3.60;;;;;;;32.27;27.84;101031.94;5029484;28;20383;-62
2022/08/05 05:22:06;;;;;;;7.03;3.77;;;;;;;32.70;27.08;101026.03;5026433;28;20899;-61
2022/08/05 05:24:31;;;;;;;5.72;3.40;;;;;;;33.07;26.67;101029.47;5028305;28;20922;-62
2022/08/05 05:26:57;;;;;;;4.17;3.30;;;;;;;33.38;26.18;101025.94;5029298;28;20476;-61
2022/08/05 05:29:22;;;;;;;3.60;3.30;;;;;;;33.59;25.78;101023.44;5028195;28;20468;-61
2022/08/05 05:31:48;;;;;;;6.60;3.80;;;;;;;34.11;25.29;101019.22;5026950;28;20398;-61
2022/08/05 05:34:13;;;;;;;8.52;3.97;;;;;;;34.80;24.31;101021.97;5029149;28;20884;-64
2022/08/05 05:36:40;;;;;;;7.82;3.40;;;;;;;35.65;23.12;101008.53;5028190;28;20425;-60
2022/08/05 05:39:05;;;;;;;4.70;3.30;;;;;;;38.34;20.08;101017.00;5027469;28;20438;-60
2022/08/05 05:41:31;;;;;;;4.65;3.17;;;;;;;41.12;16.94;101006.31;5023942;28;20496;-60
2022/08/05 05:43:57;;;;;;;7.03;3.45;;;;;;;42.60;15.36;101006.34;5028672;28;20439;-60
2022/08/05 05:46:23;;;;;;;7.00;3.37;;;;;;;43.82;14.38;101007.31;5027313;28;20426;-61
2022/08/05 05:48:48;;;;;;;6.57;3.57;;;;;;;45.57;12.83;101008.78;5026485;28;20390;-60
2022/08/05 05:51:18;;;;;;;5.03;3.40;;;;;;;46.90;11.79;101002.53;5024378;28;20406;-61
2022/08/05 05:53:43;;;;;;;5.10;3.10;;;;;;;47.40;11.39;100997.66;5028607;28;20403;-62
2022/08/05 05:56:09;;;;;;;5.97;3.50;;;;;;;48.20;10.84;101001.91;5026964;28;20394;-62
2022/08/05 05:58:34;;;;;;;5.07;3.30;;;;;;;48.57;10.57;100999.38;5028518;28;20733;-61
2022/08/05 06:01:00;;;;;;;5.47;3.17;;;;;;;49.36;9.76;101001.66;5027023;28;20408;-62
2022/08/05 06:03:25;;;;;;;6.33;3.10;;;;;;;50.08;9.81;100999.38;5022973;28;20444;-62
2022/08/05 06:05:51;;;;;;;3.63;3.23;;;;;;;51.29;8.96;101002.47;5027645;28;20529;-62
2022/08/05 06:08:16;;;;;;;5.30;3.40;;;;;;;52.38;8.43;100996.03;5028690;28;20408;-61
2022/08/05 06:10:42;;;;;;;6.93;3.40;;;;;;;53.46;7.63;101004.44;5028320;28;20418;-62
2022/08/05 06:13:07;;;;;;;7.10;3.30;;;;;;;53.44;7.32;100998.44;5028040;28;20398;-62
2022/08/05 06:15:33;;;;;;;6.03;3.33;;;;;;;53.90;7.36;101000.00;5027274;28;20402;-62
2022/08/05 06:17:58;;;;;;;5.63;3.80;;;;;;;54.87;6.87;100996.03;5027969;28;20386;-62
2022/08/05 06:20:23;;;;;;;6.30;3.50;;;;;;;55.68;5.83;100993.56;5029098;28;20382;-62
2022/08/05 06:22:49;;;;;;;5.07;3.67;;;;;;;56.71;5.46;100991.00;5027600;28;20412;-62
2022/08/05 06:25:14;;;;;;;3.80;3.30;;;;;;;57.54;5.01;100990.28;5028581;28;20379;-62
2022/08/05 06:27:40;;;;;;;5.45;3.70;;;;;;;58.17;4.73;100989.97;5027948;28;20429;-62
2022/08/05 06:30:07;;;;;;;4.35;3.85;;;;;;;58.46;4.80;100991.94;5027353;28;20376;-61
2022/08/05 06:32:32;;;;;;;6.70;3.83;;;;;;;58.98;4.70;100987.63;5027537;28;20398;-61
2022/08/05 06:34:58;;;;;;;3.92;3.53;;;;;;;59.16;4.10;100990.16;5028583;28;20386;-63
2022/08/05 06:37:27;;;;;;;7.33;3.50;;;;;;;58.49;4.70;100987.28;5025746;28;20416;-62
2022/08/05 06:39:52;;;;;;;5.50;3.13;;;;;;;58.56;4.42;100987.63;5026565;28;20425;-62
2022/08/05 06:42:18;;;;;;;5.70;4.00;;;;;;;59.03;4.53;100987.69;5028265;28;20398;-62
2022/08/05 06:44:43;;;;;;;8.02;3.65;;;;;;;60.12;3.64;100988.09;5027829;28;20524;-64
2022/08/05 06:47:09;;;;;;;6.53;3.93;;;;;;;60.39;3.92;100989.53;5025361;28;20414;-66
2022/08/05 06:49:35;;;;;;;4.97;3.70;;;;;;;60.63;3.67;100986.22;5027531;28;20867;-62
2022/08/05 06:52:00;;;;;;;7.83;3.90;;;;;;;60.66;3.43;100984.41;5024567;28;20472;-66
2022/08/05 06:54:26;;;;;;;7.27;3.57;;;;;;;59.89;3.38;100984.28;5024910;28;20417;-62
2022/08/05 06:56:51;;;;;;;7.80;3.70;;;;;;;59.78;4.12;100987.84;5026406;28;20421;-61
2022/08/05 06:59:16;;;;;;;6.23;4.07;;;;;;;59.83;3.73;100983.47;5026764;28;20429;-59
2022/08/05 07:01:42;;;;;;;6.83;3.77;;;;;;;59.29;3.74;100981.22;5028431;28;20489;-61
2022/08/05 07:04:08;;;;;;;5.37;3.60;;;;;;;59.45;4.10;100976.91;5025198;28;20402;-64
2022/08/05 07:06:34;;;;;;;6.03;3.55;;;;;;;60.09;3.97;100977.66;5030232;28;20425;-60
2022/08/05 07:09:00;;;;;;;5.15;3.80;;;;;;;60.42;3.47;100977.06;5021749;28;20927;-61
2022/08/05 07:11:27;;;;;;;5.75;3.92;;;;;;;60.50;4.10;100982.28;5024427;28;20401;-61
2022/08/05 07:16:48;;;;;;;5.00;3.60;;;;;;;59.69;3.78;100971.66;5032176;28;20431;-61
2022/08/05 07:19:20;;;;;;;5.15;3.92;;;;;;;57.86;4.73;100968.50;5026548;28;20429;-60
2022/08/05 07:21:49;;;;;;;5.90;3.85;;;;;;;55.78;5.90;100974.44;5028967;28;20781;-60
2022/08/05 07:24:16;;;;;;;6.03;3.57;;;;;;;53.25;7.03;100982.56;5034209;28;20466;-61
2022/08/05 07:26:42;;;;;;;5.78;3.53;;;;;;;49.36;9.31;100984.75;5031672;28;20430;-61
2022/08/05 07:29:08;;;;;;;6.68;3.50;;;;;;;46.71;11.11;100986.22;5029655;28;20410;-63
2022/08/05 07:31:34;;;;;;;6.17;3.37;;;;;;;45.22;12.24;100996.44;5031054;28;21486;-61
2022/08/05 07:34:00;;;;;;;5.83;3.40;;;;;;;44.23;13.00;100995.16;5031978;28;20386;-63
2022/08/05 07:36:26;;;;;;;7.37;3.90;;;;;;;43.47;14.03;101003.13;5032119;28;20855;-60
2022/08/05 07:38:52;;;;;;;6.50;3.43;;;;;;;42.76;14.69;100998.53;5029856;28;20748;-61
2022/08/05 07:41:19;;;;;;;5.35;3.60;;;;;;;42.09;15.08;100999.41;5030680;28;20421;-60
2022/08/05 07:43:45;;;;;;;6.13;3.60;;;;;;;41.35;15.77;100997.16;5030504;28;20765;-60
2022/08/05 07:46:10;;;;;;;5.25;3.80;;;;;;;40.77;16.78;100998.94;5029667;28;20414;-62
2022/08/05 07:48:36;;;;;;;6.20;3.60;;;;;;;40.26;17.21;101002.72;5031229;28;20383;-64
2022/08/05 07:51:01;;;;;;;5.30;3.40;;;;;;;39.67;17.44;101003.81;5030259;28;20444;-60
2022/08/05 07:53:27;;;;;;;7.30;3.80;;;;;;;39.10;18.28;101006.03;5029944;28;21127;-60
2022/08/05 07:55:52;;;;;;;13.77;5.60;;;;;;;38.65;18.58;101012.75;5031002;28;20452;-60
2022/08/05 07:58:18;;;;;;;19.77;6.93;;;;;;;38.20;19.36;101015.44;5030883;28;20482;-61
2022/08/05 08:00:43;;;;;;;15.20;6.00;;;;;;;37.84;19.76;101017.13;5031422;28;20398;-61
2022/08/05 08:03:10;;;;;;;17.05;7.32;;;;;;;37.60;19.99;101008.81;5031148;28;20382;-61
2022/08/05 08:05:36;;;;;;;11.82;5.05;;;;;;;37.24;20.04;101005.72;5030926;28;20561;-61
2022/08/05 08:08:02;;;;;;;15.60;6.43;;;;;;;37.03;20.61;101011.31;5031304;28;20493;-61
2022/08/05 08:10:28;;;;;;;9.10;3.60;;;;;;;36.75;20.43;101016.66;5031304;28;20382;-61
2022/08/05 08:12:53;;;;;;;13.50;5.38;;;;;;;36.55;20.84;101026.56;5030620;28;20441;-65
2022/08/05 08:15:19;;;;;;;12.90;5.33;;;;;;;36.35;21.29;101022.69;5030582;28;20374;-61
2022/08/05 08:17:45;;;;;;;7.07;3.93;;;;;;;35.95;21.28;101017.63;5029812;28;20396;-61
2022/08/05 08:20:11;;;;;;;13.98;6.28;;;;;;;35.89;22.02;101018.94;5030537;28;20469;-63
2022/08/05 08:22:37;;;;;;;14.40;6.18;;;;;;;35.87;22.03;101015.72;5031039;28;20387;-61
2022/08/05 08:25:04;;;;;;;13.25;5.10;;;;;;;35.77;22.45;101014.97;5031092;28;20383;-61
2022/08/05 08:27:30;;;;;;;9.00;3.40;;;;;;;35.35;22.43;101020.38;5029897;28;20433;-61
2022/08/05 08:29:56;;;;;;;9.60;4.88;;;;;;;35.15;22.95;101021.06;5030453;28;20382;-61
2022/08/05 08:32:21;;;;;;;7.43;3.30;;;;;;;35.04;22.86;101017.84;5030672;28;20809;-63
2022/08/05 08:34:47;;;;;;;11.27;4.15;;;;;;;34.88;23.25;101014.00;5029453;28;20955;-64
2022/08/05 08:37:12;;;;;;;6.60;3.53;;;;;;;34.84;23.33;101013.84;5031085;28;20383;-67
2022/08/05 08:39:38;;;;;;;12.88;4.78;;;;;;;34.68;23.63;101016.28;5030907;28;20394;-60
2022/08/05 08:42:04;;;;;;;8.85;3.95;;;;;;;34.80;23.55;101010.16;5030162;28;20919;-61
2022/08/05 08:44:32;;;;;;;8.43;4.53;;;;;;;34.84;23.75;101008.34;5030477;28;20387;-61
2022/08/05 08:46:58;;;;;;;9.68;4.60;;;;;;;34.78;23.59;101009.66;5030123;28;20446;-61
2022/08/05 08:49:25;;;;;;;7.25;4.05;;;;;;;34.73;24.02;101012.59;5029769;28;20378;-61
2022/08/05 08:52:00;;;;;;;9.10;4.20;;;;;;;34.72;23.81;101014.53;5031050;28;20429;-60
2022/08/05 08:54:25;;;;;;;9.30;4.40;;;;;;;34.72;23.88;101014.53;5028450;28;20885;-60
2022/08/05 08:56:51;;;;;;;10.73;3.87;;;;;;;34.78;23.61;101010.47;5030553;28;20446;-61
2022/08/05 08:59:21;;;;;;;8.40;3.90;;;;;;;34.76;23.71;101004.47;5029912;28;20386;-60
2022/08/05 09:01:47;;;;;;;6.53;3.70;;;;;;;34.76;23.87;100998.19;5044389;28;20390;-61
2022/08/05 09:04:13;;;;;;;5.57;3.40;;;;;;;34.69;23.83;100995.91;5037119;28;20425;-60
2022/08/05 09:06:39;;;;;;;6.47;3.65;;;;;;;34.66;23.97;100997.34;5037016;28;20475;-61
2022/08/05 09:09:05;;;;;;;5.80;3.53;;;;;;;34.56;24.08;100985.88;5040862;28;20381;-60
2022/08/05 09:11:35;;;;;;;6.90;3.30;;;;;;;34.50;24.12;100995.41;5038347;28;20438;-61
2022/08/05 09:14:02;;;;;;;6.97;3.33;;;;;;;34.26;24.38;100988.47;5028477;28;21231;-63
2022/08/05 09:16:27;;;;;;;5.20;3.17;;;;;;;34.07;24.80;100992.34;5030803;28;20413;-60
2022/08/05 09:18:53;;;;;;;7.43;3.40;;;;;;;34.05;25.01;100991.84;5035927;28;20750;-61
2022/08/05 09:21:21;;;;;;;4.72;3.30;;;;;;;34.03;24.98;100976.78;5041578;28;20456;-61
2022/08/05 09:24:01;;;;;;;7.05;3.42;;;;;;;34.03;24.79;100982.28;5031910;28;20386;-61
2022/08/05 09:26:27;;;;;;;6.88;3.30;;;;;;;33.96;25.13;100977.28;5033316;28;20463;-61
2022/08/05 09:28:57;;;;;;;6.87;3.43;;;;;;;33.90;25.00;100973.84;5031551;28;20429;-61
2022/08/05 09:31:23;;;;;;;6.38;3.63;;;;;;;33.89;24.95;100976.97;5035056;28;20419;-62
2022/08/05 09:34:00;;;;;;;7.27;3.60;;;;;;;33.82;25.10;100971.94;5029524;28;20742;-62
2022/08/05 09:36:41;;;;;;;4.80;3.20;;;;;;;33.70;25.10;100971.75;5036317;28;20377;-61
2022/08/05 09:39:09;;;;;;;9.32;3.10;;;;;;;33.72;25.04;100978.53;5034496;28;20417;-62
2022/08/05 09:42:03;;;;;;;6.25;3.13;;;;;;;33.68;25.30;100965.75;5027150;28;20421;-62
2022/08/05 09:44:40;;;;;;;7.25;3.20;;;;;;;33.56;25.22;100963.59;5031100;28;20900;-61
2022/08/05 09:47:23;;;;;;;4.80;3.00;;;;;;;33.48;25.29;100958.91;5030654;28;20505;-64
2022/08/05 09:49:56;;;;;;;5.07;3.03;;;;;;;33.57;25.17;100961.66;5030371;28;20393;-61
2022/08/05 09:52:34;;;;;;;7.05;3.10;;;;;;;33.60;25.39;100959.09;5042064;28;20448;-61
2022/08/05 09:55:00;;;;;;;7.55;3.47;;;;;;;33.67;25.43;100962.22;5030733;28;20398;-61
2022/08/05 09:57:29;;;;;;;3.67;2.85;;;;;;;33.79;25.56;100958.00;5035396;28;20412;-61
2022/08/05 10:00:00;;;;;;;6.28;3.25;;;;;;;33.71;25.37;100954.94;5040746;28;20747;-60
2022/08/05 10:02:43;;;;;;;6.72;2.92;;;;;;;33.61;25.64;100952.44;5040444;28;20446;-64
2022/08/05 10:05:15;;;;;;;7.68;3.10;;;;;;;33.75;25.45;100955.09;5036523;28;20780;-62
2022/08/05 10:07:47;;;;;;;7.07;2.80;;;;;;;33.82;25.46;100949.13;5029936;28;20409;-62
2022/08/05 10:10:14;;;;;;;4.63;2.80;;;;;;;33.79;24.72;100950.56;5029988;28;20443;-62
2022/08/05 10:12:42;;;;;;;6.80;3.40;;;;;;;33.82;24.86;100949.94;5029863;28;20474;-62
2022/08/05 10:15:34;;;;;;;4.80;2.97;;;;;;;34.06;24.46;100946.69;5029116;28;20382;-66
2022/08/05 10:18:18;;;;;;;5.00;2.93;;;;;;;34.17;24.44;100946.38;5028620;28;20391;-62
2022/08/05 10:20:55;;;;;;;4.43;2.83;;;;;;;34.09;24.13;100940.56;5028973;28;20394;-61
2022/08/05 10:23:24;;;;;;;4.25;2.60;;;;;;;34.11;24.05;100942.19;5030155;28;20465;-62
2022/08/05 10:25:49;;;;;;;8.13;3.22;;;;;;;34.09;24.16;100924.03;5029223;28;20386;-62
2022/08/05 10:28:16;;;;;;;5.30;2.73;;;;;;;34.09;23.85;100939.75;5029404;28;20842;-62
2022/08/05 10:30:42;;;;;;;5.38;2.63;;;;;;;33.93;23.90;100920.16;5029625;28;20386;-62
2022/08/05 10:33:08;;;;;;;3.88;2.53;;;;;;;34.02;23.89;100929.22;5028900;28;20393;-62
2022/08/05 10:35:35;;;;;;;4.75;2.50;;;;;;;34.08;23.84;100919.66;5028143;28;20463;-62
2022/08/05 10:38:01;;;;;;;3.47;2.30;;;;;;;34.01;23.40;100915.78;5029681;28;20393;-63
2022/08/05 10:40:57;;;;;;;3.45;2.38;;;;;;;33.91;23.00;100919.69;5029585;28;20417;-62
2022/08/05 10:43:56;;;;;;;3.80;2.10;;;;;;;33.92;22.42;100915.78;5023921;28;20425;-62
2022/08/05 10:46:22;;;;;;;3.10;2.10;;;;;;;33.89;22.97;100909.00;5029407;28;20437;-62
2022/08/05 10:48:49;;;;;;;2.67;2.30;;;;;;;34.05;23.10;100903.00;5031595;28;20761;-62
2022/08/05 10:51:19;;;;;;;5.15;2.30;;;;;;;34.01;22.67;100899.28;5033582;28;20513;-62
2022/08/05 10:53:53;;;;;;;2.63;2.30;;;;;;;34.05;22.61;100903.81;5033214;28;20401;-62
2022/08/05 10:56:24;;;;;;;4.78;2.30;;;;;;;34.05;22.34;100892.00;5033056;28;20378;-61
2022/08/05 10:58:52;;;;;;;5.93;2.40;;;;;;;34.09;22.37;100880.03;5033355;28;20416;-62
2022/08/05 11:01:29;;;;;;;3.58;2.30;;;;;;;34.22;22.56;100891.22;5033377;28;20386;-61
2022/08/05 11:04:03;;;;;;;3.58;2.22;;;;;;;34.12;22.28;100881.31;5033101;28;20443;-62
2022/08/05 11:06:29;;;;;;;4.47;2.17;;;;;;;34.17;22.43;100869.34;5027353;28;20765;-62
2022/08/05 11:09:21;;;;;;;5.15;2.10;;;;;;;34.28;22.12;100889.91;5030918;28;20406;-63
2022/08/05 11:11:49;;;;;;;3.25;2.10;;;;;;;34.33;22.30;100878.72;5029811;28;20438;-61
2022/08/05 11:14:25;;;;;;;3.97;2.20;;;;;;;34.27;22.14;100872.59;5030372;28;20793;-60
2022/08/05 11:17:32;;;;;;;4.43;2.35;;;;;;;34.32;22.29;100874.34;5021409;28;20905;-62
2022/08/05 11:19:58;;;;;;;2.67;2.05;;;;;;;34.24;21.82;100870.47;5022177;28;20405;-60
2022/08/05 11:22:43;;;;;;;4.53;2.20;;;;;;;34.27;21.83;100861.56;5025225;28;20409;-59
2022/08/05 11:25:39;;;;;;;3.42;2.30;;;;;;;34.34;21.58;100863.84;5024811;28;20813;-60
2022/08/05 11:28:24;;;;;;;2.72;2.30;;;;;;;34.44;21.04;100848.91;5021568;28;20488;-63
2022/08/05 11:30:56;;;;;;;4.13;2.50;;;;;;;34.62;21.16;100855.16;5024198;28;20416;-60
2022/08/05 11:33:25;;;;;;;3.10;2.10;;;;;;;34.64;20.72;100847.38;5025698;28;20434;-62
2022/08/05 11:35:53;;;;;;;2.87;2.30;;;;;;;34.64;20.56;100859.19;5028073;28;21042;-60
2022/08/05 11:38:41;;;;;;;4.15;2.10;;;;;;;34.64;20.31;100848.16;5024413;28;20413;-60
2022/08/05 11:41:20;;;;;;;2.80;2.10;;;;;;;34.70;20.59;100848.03;5023477;28;20406;-60
2022/08/05 11:44:13;;;;;;;3.80;2.00;;;;;;;34.72;20.31;100846.56;5026578;28;20402;-61
2022/08/05 11:46:41;;;;;;;2.38;1.90;;;;;;;34.58;20.17;100846.75;5019122;28;20419;-63
2022/08/05 11:49:12;;;;;;;5.47;1.85;;;;;;;34.65;20.19;100841.53;5022475;28;20516;-61
2022/08/05 11:51:43;;;;;;;2.80;2.10;;;;;;;34.83;20.45;100847.81;5022128;28;20778;-60